sensor_id;sensor_type;location;lat;lon;timestamp;P1;P2;P0
55549;PMS7003;41397;49.972;18.944;2023-04-03T00:02:26;6;6;5
55549;PMS7003;41397;49.972;18.944;2023-04-03T00:05:28;11;11;7
55549;PMS7003;41397;49.972;18.944;2023-04-03T00:08:31;10;10;8
55549;PMS7003;41397;49.972;18.944;2023-04-03T00:11:33;9;9;6
55549;PMS7003;41397;49.972;18.944;2023-04-03T00:14:34;10;10;8
55549;PMS7003;41397;49.972;18.944;2023-04-03T00:17:35;11;11;11
55549;PMS7003;41397;49.972;18.944;2023-04-03T00:20:39;10;10;7
55549;PMS7003;41397;49.972;18.944;2023-04-03T00:23:40;12;12;9
55549;PMS7003;41397;49.972;18.944;2023-04-03T00:26:42;8;8;7
55549;PMS7003;41397;49.972;18.944;2023-04-03T00:29:43;11;11;9
55549;PMS7003;41397;49.972;18.944;2023-04-03T00:32:48;8;8;7
55549;PMS7003;41397;49.972;18.944;2023-04-03T00:35:50;12;12;8
55549;PMS7003;41397;49.972;18.944;2023-04-03T00:38:52;11;11;9
55549;PMS7003;41397;49.972;18.944;2023-04-03T00:41:53;10;10;7
55549;PMS7003;41397;49.972;18.944;2023-04-03T00:48:08;6;6;4
55549;PMS7003;41397;49.972;18.944;2023-04-03T00:51:15;11;11;8
55549;PMS7003;41397;49.972;18.944;2023-04-03T00:54:20;8;8;8
55549;PMS7003;41397;49.972;18.944;2023-04-03T00:57:22;9;9;7
55549;PMS7003;41397;49.972;18.944;2023-04-03T01:00:28;11;11;6
55549;PMS7003;41397;49.972;18.944;2023-04-03T01:03:30;7;7;6
55549;PMS7003;41397;49.972;18.944;2023-04-03T01:06:33;5;5;3
55549;PMS7003;41397;49.972;18.944;2023-04-03T01:09:37;8;8;6
55549;PMS7003;41397;49.972;18.944;2023-04-03T01:12:40;7;7;6
55549;PMS7003;41397;49.972;18.944;2023-04-03T01:15:43;9;9;6
55549;PMS7003;41397;49.972;18.944;2023-04-03T01:18:45;4;4;4
55549;PMS7003;41397;49.972;18.944;2023-04-03T01:25:00;8;8;5
55549;PMS7003;41397;49.972;18.944;2023-04-03T01:28:03;6;6;4
55549;PMS7003;41397;49.972;18.944;2023-04-03T01:34:21;5;5;3
55549;PMS7003;41397;49.972;18.944;2023-04-03T01:37:23;10;10;7
55549;PMS7003;41397;49.972;18.944;2023-04-03T01:40:25;7;7;5
55549;PMS7003;41397;49.972;18.944;2023-04-03T01:43:26;6;6;5
55549;PMS7003;41397;49.972;18.944;2023-04-03T01:46:28;5;5;4
55549;PMS7003;41397;49.972;18.944;2023-04-03T01:49:29;0;0;0
55549;PMS7003;41397;49.972;18.944;2023-04-03T01:52:30;8;8;5
55549;PMS7003;41397;49.972;18.944;2023-04-03T01:55:32;5;5;4
55549;PMS7003;41397;49.972;18.944;2023-04-03T01:58:33;4;4;4
55549;PMS7003;41397;49.972;18.944;2023-04-03T02:01:35;7;7;6
55549;PMS7003;41397;49.972;18.944;2023-04-03T02:04:36;7;7;5
55549;PMS7003;41397;49.972;18.944;2023-04-03T02:07:38;12;12;9
55549;PMS7003;41397;49.972;18.944;2023-04-03T02:10:40;9;9;7
55549;PMS7003;41397;49.972;18.944;2023-04-03T02:13:41;13;13;9
55549;PMS7003;41397;49.972;18.944;2023-04-03T02:16:42;10;10;6
55549;PMS7003;41397;49.972;18.944;2023-04-03T02:19:44;9;9;7
55549;PMS7003;41397;49.972;18.944;2023-04-03T02:22:45;10;10;8
55549;PMS7003;41397;49.972;18.944;2023-04-03T02:25:47;12;12;9
55549;PMS7003;41397;49.972;18.944;2023-04-03T02:28:49;11;11;7
55549;PMS7003;41397;49.972;18.944;2023-04-03T02:31:51;8;6;4
55549;PMS7003;41397;49.972;18.944;2023-04-03T02:34:52;15;15;11
55549;PMS7003;41397;49.972;18.944;2023-04-03T02:37:54;15;15;11
55549;PMS7003;41397;49.972;18.944;2023-04-03T02:41:03;15;13;7
55549;PMS7003;41397;49.972;18.944;2023-04-03T02:44:08;13;12;12
55549;PMS7003;41397;49.972;18.944;2023-04-03T02:47:11;9;9;7
55549;PMS7003;41397;49.972;18.944;2023-04-03T02:50:12;14;12;10
55549;PMS7003;41397;49.972;18.944;2023-04-03T02:53:13;14;14;12
55549;PMS7003;41397;49.972;18.944;2023-04-03T02:56:16;8;8;7
55549;PMS7003;41397;49.972;18.944;2023-04-03T02:59:19;15;15;11
55549;PMS7003;41397;49.972;18.944;2023-04-03T03:02:21;7;7;6
55549;PMS7003;41397;49.972;18.944;2023-04-03T03:05:22;9;9;6
55549;PMS7003;41397;49.972;18.944;2023-04-03T03:08:24;13;13;10
55549;PMS7003;41397;49.972;18.944;2023-04-03T03:11:25;12;12;10
55549;PMS7003;41397;49.972;18.944;2023-04-03T03:14:27;11;11;10
55549;PMS7003;41397;49.972;18.944;2023-04-03T03:17:28;8;8;2
55549;PMS7003;41397;49.972;18.944;2023-04-03T03:20:30;16;16;9
55549;PMS7003;41397;49.972;18.944;2023-04-03T03:23:31;10;10;6
55549;PMS7003;41397;49.972;18.944;2023-04-03T03:26:34;7;7;5
55549;PMS7003;41397;49.972;18.944;2023-04-03T03:29:36;8;8;6
55549;PMS7003;41397;49.972;18.944;2023-04-03T03:32:37;9;9;8
55549;PMS7003;41397;49.972;18.944;2023-04-03T03:35:38;10;10;7
55549;PMS7003;41397;49.972;18.944;2023-04-03T03:38:41;11;11;10
55549;PMS7003;41397;49.972;18.944;2023-04-03T03:41:42;11;11;7
55549;PMS7003;41397;49.972;18.944;2023-04-03T03:44:44;6;6;4
55549;PMS7003;41397;49.972;18.944;2023-04-03T03:47:46;9;9;7
55549;PMS7003;41397;49.972;18.944;2023-04-03T03:50:47;13;13;11
55549;PMS7003;41397;49.972;18.944;2023-04-03T03:53:50;11;11;10
55549;PMS7003;41397;49.972;18.944;2023-04-03T03:56:51;12;12;8
55549;PMS7003;41397;49.972;18.944;2023-04-03T03:59:52;11;10;9
55549;PMS7003;41397;49.972;18.944;2023-04-03T04:02:54;4;4;1
55549;PMS7003;41397;49.972;18.944;2023-04-03T04:05:56;12;12;9
55549;PMS7003;41397;49.972;18.944;2023-04-03T04:08:58;12;12;8
55549;PMS7003;41397;49.972;18.944;2023-04-03T04:12:00;16;16;11
55549;PMS7003;41397;49.972;18.944;2023-04-03T04:15:01;4;4;2
55549;PMS7003;41397;49.972;18.944;2023-04-03T04:18:04;9;9;8
55549;PMS7003;41397;49.972;18.944;2023-04-03T04:21:05;6;6;5
55549;PMS7003;41397;49.972;18.944;2023-04-03T04:24:07;0;0;0
55549;PMS7003;41397;49.972;18.944;2023-04-03T04:27:09;8;8;5
55549;PMS7003;41397;49.972;18.944;2023-04-03T04:30:12;23;22;14
55549;PMS7003;41397;49.972;18.944;2023-04-03T04:33:15;13;13;11
55549;PMS7003;41397;49.972;18.944;2023-04-03T04:36:17;13;12;10
55549;PMS7003;41397;49.972;18.944;2023-04-03T04:39:18;9;9;8
55549;PMS7003;41397;49.972;18.944;2023-04-03T04:42:19;15;15;11
55549;PMS7003;41397;49.972;18.944;2023-04-03T04:45:21;12;12;9
55549;PMS7003;41397;49.972;18.944;2023-04-03T04:48:22;11;11;8
55549;PMS7003;41397;49.972;18.944;2023-04-03T04:51:23;11;11;9
55549;PMS7003;41397;49.972;18.944;2023-04-03T04:54:27;10;10;8
55549;PMS7003;41397;49.972;18.944;2023-04-03T04:57:29;15;15;10
55549;PMS7003;41397;49.972;18.944;2023-04-03T05:00:30;8;8;6
55549;PMS7003;41397;49.972;18.944;2023-04-03T05:03:32;9;9;6
55549;PMS7003;41397;49.972;18.944;2023-04-03T05:06:35;8;8;6
55549;PMS7003;41397;49.972;18.944;2023-04-03T05:09:37;9;9;6
55549;PMS7003;41397;49.972;18.944;2023-04-03T05:12:39;10;10;6
55549;PMS7003;41397;49.972;18.944;2023-04-03T05:15:41;10;10;7
55549;PMS7003;41397;49.972;18.944;2023-04-03T05:18:43;9;9;8
55549;PMS7003;41397;49.972;18.944;2023-04-03T05:21:45;9;9;5
55549;PMS7003;41397;49.972;18.944;2023-04-03T05:24:46;5;5;3
55549;PMS7003;41397;49.972;18.944;2023-04-03T05:27:48;7;7;7
55549;PMS7003;41397;49.972;18.944;2023-04-03T05:30:55;8;8;6
55549;PMS7003;41397;49.972;18.944;2023-04-03T05:33:58;8;8;4
55549;PMS7003;41397;49.972;18.944;2023-04-03T05:36:59;10;10;8
55549;PMS7003;41397;49.972;18.944;2023-04-03T05:40:04;10;10;8
55549;PMS7003;41397;49.972;18.944;2023-04-03T05:43:06;11;11;9
55549;PMS7003;41397;49.972;18.944;2023-04-03T05:46:14;9;9;7
55549;PMS7003;41397;49.972;18.944;2023-04-03T05:49:17;8;8;3
55549;PMS7003;41397;49.972;18.944;2023-04-03T05:52:20;13;13;11
55549;PMS7003;41397;49.972;18.944;2023-04-03T05:55:24;11;11;8
55549;PMS7003;41397;49.972;18.944;2023-04-03T05:58:32;11;11;9
55549;PMS7003;41397;49.972;18.944;2023-04-03T06:01:33;10;10;8
55549;PMS7003;41397;49.972;18.944;2023-04-03T06:04:35;13;13;10
55549;PMS7003;41397;49.972;18.944;2023-04-03T06:07:37;11;11;8
55549;PMS7003;41397;49.972;18.944;2023-04-03T06:10:40;8;8;6
55549;PMS7003;41397;49.972;18.944;2023-04-03T06:13:41;9;9;7
55549;PMS7003;41397;49.972;18.944;2023-04-03T06:16:43;14;14;11
55549;PMS7003;41397;49.972;18.944;2023-04-03T06:19:45;7;7;6
55549;PMS7003;41397;49.972;18.944;2023-04-03T06:22:48;8;8;6
55549;PMS7003;41397;49.972;18.944;2023-04-03T06:25:49;9;9;7
55549;PMS7003;41397;49.972;18.944;2023-04-03T06:28:51;10;10;7
55549;PMS7003;41397;49.972;18.944;2023-04-03T06:35:04;12;12;9
55549;PMS7003;41397;49.972;18.944;2023-04-03T06:38:07;9;7;4
55549;PMS7003;41397;49.972;18.944;2023-04-03T06:41:10;7;7;6
55549;PMS7003;41397;49.972;18.944;2023-04-03T06:44:12;9;9;7
55549;PMS7003;41397;49.972;18.944;2023-04-03T06:47:16;5;5;3
55549;PMS7003;41397;49.972;18.944;2023-04-03T06:50:24;10;10;7
55549;PMS7003;41397;49.972;18.944;2023-04-03T06:53:26;7;7;5
55549;PMS7003;41397;49.972;18.944;2023-04-03T06:56:28;12;12;11
55549;PMS7003;41397;49.972;18.944;2023-04-03T06:59:30;13;13;8
55549;PMS7003;41397;49.972;18.944;2023-04-03T07:02:32;17;17;8
55549;PMS7003;41397;49.972;18.944;2023-04-03T07:05:34;12;12;10
55549;PMS7003;41397;49.972;18.944;2023-04-03T07:08:36;11;11;7
55549;PMS7003;41397;49.972;18.944;2023-04-03T07:11:37;10;10;6
55549;PMS7003;41397;49.972;18.944;2023-04-03T07:14:40;11;11;8
55549;PMS7003;41397;49.972;18.944;2023-04-03T07:17:43;17;17;7
55549;PMS7003;41397;49.972;18.944;2023-04-03T07:20:45;7;7;4
55549;PMS7003;41397;49.972;18.944;2023-04-03T07:23:46;10;10;6
55549;PMS7003;41397;49.972;18.944;2023-04-03T07:26:49;9;9;9
55549;PMS7003;41397;49.972;18.944;2023-04-03T07:29:52;11;11;8
55549;PMS7003;41397;49.972;18.944;2023-04-03T07:32:57;13;13;9
55549;PMS7003;41397;49.972;18.944;2023-04-03T07:35:58;8;8;6
55549;PMS7003;41397;49.972;18.944;2023-04-03T07:39:01;14;14;12
55549;PMS7003;41397;49.972;18.944;2023-04-03T07:42:02;10;10;8
55549;PMS7003;41397;49.972;18.944;2023-04-03T07:45:04;3;3;2
55549;PMS7003;41397;49.972;18.944;2023-04-03T07:48:07;7;7;5
55549;PMS7003;41397;49.972;18.944;2023-04-03T07:51:09;7;7;5
55549;PMS7003;41397;49.972;18.944;2023-04-03T07:54:11;7;7;5
55549;PMS7003;41397;49.972;18.944;2023-04-03T07:57:12;9;9;6
55549;PMS7003;41397;49.972;18.944;2023-04-03T08:00:14;6;6;5
55549;PMS7003;41397;49.972;18.944;2023-04-03T08:03:18;10;10;7
55549;PMS7003;41397;49.972;18.944;2023-04-03T08:06:19;7;7;6
55549;PMS7003;41397;49.972;18.944;2023-04-03T08:09:26;11;9;7
55549;PMS7003;41397;49.972;18.944;2023-04-03T08:12:27;7;7;5
55549;PMS7003;41397;49.972;18.944;2023-04-03T08:15:32;4;4;4
55549;PMS7003;41397;49.972;18.944;2023-04-03T08:18:33;9;9;6
55549;PMS7003;41397;49.972;18.944;2023-04-03T08:21:35;4;4;3
55549;PMS7003;41397;49.972;18.944;2023-04-03T08:24:37;8;7;3
55549;PMS7003;41397;49.972;18.944;2023-04-03T08:27:38;6;6;5
55549;PMS7003;41397;49.972;18.944;2023-04-03T08:30:40;7;7;6
55549;PMS7003;41397;49.972;18.944;2023-04-03T08:33:43;3;3;3
55549;PMS7003;41397;49.972;18.944;2023-04-03T08:36:45;5;5;4
55549;PMS7003;41397;49.972;18.944;2023-04-03T08:39:46;3;3;2
55549;PMS7003;41397;49.972;18.944;2023-04-03T08:42:54;0;0;0
55549;PMS7003;41397;49.972;18.944;2023-04-03T08:46:05;1;1;1
55549;PMS7003;41397;49.972;18.944;2023-04-03T08:49:21;2;2;1
55549;PMS7003;41397;49.972;18.944;2023-04-03T08:52:32;2;2;2
55549;PMS7003;41397;49.972;18.944;2023-04-03T08:55:42;1;1;0
55549;PMS7003;41397;49.972;18.944;2023-04-03T08:58:50;4;4;3
55549;PMS7003;41397;49.972;18.944;2023-04-03T09:01:57;0;0;0
55549;PMS7003;41397;49.972;18.944;2023-04-03T09:11:27;0;0;0
55549;PMS7003;41397;49.972;18.944;2023-04-03T09:18:02;0;0;0
55549;PMS7003;41397;49.972;18.944;2023-04-03T09:24:17;1;1;1
55549;PMS7003;41397;49.972;18.944;2023-04-03T09:27:23;1;1;1
55549;PMS7003;41397;49.972;18.944;2023-04-03T09:30:26;1;1;1
55549;PMS7003;41397;49.972;18.944;2023-04-03T09:33:28;0;0;0
55549;PMS7003;41397;49.972;18.944;2023-04-03T09:42:57;1;1;0
55549;PMS7003;41397;49.972;18.944;2023-04-03T09:49:14;0;0;0
55549;PMS7003;41397;49.972;18.944;2023-04-03T09:52:25;0;0;0
55549;PMS7003;41397;49.972;18.944;2023-04-03T09:55:27;2;2;1
55549;PMS7003;41397;49.972;18.944;2023-04-03T09:58:36;2;2;1
55549;PMS7003;41397;49.972;18.944;2023-04-03T10:05:25;1;1;1
55549;PMS7003;41397;49.972;18.944;2023-04-03T10:11:26;1;1;0
55549;PMS7003;41397;49.972;18.944;2023-04-03T10:14:28;2;2;1
55549;PMS7003;41397;49.972;18.944;2023-04-03T10:17:36;2;2;1
55549;PMS7003;41397;49.972;18.944;2023-04-03T10:20:43;2;2;2
55549;PMS7003;41397;49.972;18.944;2023-04-03T10:24:08;1;1;1
55549;PMS7003;41397;49.972;18.944;2023-04-03T10:27:09;3;3;2
55549;PMS7003;41397;49.972;18.944;2023-04-03T10:33:36;1;1;0
55549;PMS7003;41397;49.972;18.944;2023-04-03T10:36:54;0;0;0
55549;PMS7003;41397;49.972;18.944;2023-04-03T10:43:18;2;2;2
55549;PMS7003;41397;49.972;18.944;2023-04-03T10:46:33;3;3;1
55549;PMS7003;41397;49.972;18.944;2023-04-03T10:49:45;3;3;2
55549;PMS7003;41397;49.972;18.944;2023-04-03T10:56:30;3;3;3
55549;PMS7003;41397;49.972;18.944;2023-04-03T11:02:41;0;0;0
55549;PMS7003;41397;49.972;18.944;2023-04-03T11:05:52;3;3;2
55549;PMS7003;41397;49.972;18.944;2023-04-03T11:08:59;1;1;1
55549;PMS7003;41397;49.972;18.944;2023-04-03T11:15:29;1;1;1
55549;PMS7003;41397;49.972;18.944;2023-04-03T11:28:22;0;0;0
55549;PMS7003;41397;49.972;18.944;2023-04-03T11:34:44;3;3;2
55549;PMS7003;41397;49.972;18.944;2023-04-03T11:37:51;3;2;0
55549;PMS7003;41397;49.972;18.944;2023-04-03T11:40:54;1;1;1
55549;PMS7003;41397;49.972;18.944;2023-04-03T11:44:32;0;0;0
55549;PMS7003;41397;49.972;18.944;2023-04-03T11:53:44;1;1;1
55549;PMS7003;41397;49.972;18.944;2023-04-03T11:56:46;1;1;1
55549;PMS7003;41397;49.972;18.944;2023-04-03T11:59:47;0;0;0
55549;PMS7003;41397;49.972;18.944;2023-04-03T12:02:49;2;2;1
55549;PMS7003;41397;49.972;18.944;2023-04-03T12:12:32;1;1;0
55549;PMS7003;41397;49.972;18.944;2023-04-03T12:15:47;0;0;0
55549;PMS7003;41397;49.972;18.944;2023-04-03T12:18:56;1;1;1
55549;PMS7003;41397;49.972;18.944;2023-04-03T12:28:24;4;2;1
55549;PMS7003;41397;49.972;18.944;2023-04-03T12:31:32;0;0;0
55549;PMS7003;41397;49.972;18.944;2023-04-03T12:47:37;1;1;0
55549;PMS7003;41397;49.972;18.944;2023-04-03T12:50:48;1;1;0
55549;PMS7003;41397;49.972;18.944;2023-04-03T12:53:51;0;0;0
55549;PMS7003;41397;49.972;18.944;2023-04-03T13:00:27;0;0;0
55549;PMS7003;41397;49.972;18.944;2023-04-03T13:03:35;0;0;0
55549;PMS7003;41397;49.972;18.944;2023-04-03T13:06:41;1;1;1
55549;PMS7003;41397;49.972;18.944;2023-04-03T13:09:44;0;0;0
55549;PMS7003;41397;49.972;18.944;2023-04-03T13:12:57;1;1;1
55549;PMS7003;41397;49.972;18.944;2023-04-03T13:16:09;2;2;2
55549;PMS7003;41397;49.972;18.944;2023-04-03T13:19:17;1;1;1
55549;PMS7003;41397;49.972;18.944;2023-04-03T13:25:33;3;3;0
55549;PMS7003;41397;49.972;18.944;2023-04-03T13:28:38;0;0;0
55549;PMS7003;41397;49.972;18.944;2023-04-03T13:31:41;2;2;2
55549;PMS7003;41397;49.972;18.944;2023-04-03T13:34:43;1;1;0
55549;PMS7003;41397;49.972;18.944;2023-04-03T13:41:01;0;0;0
55549;PMS7003;41397;49.972;18.944;2023-04-03T13:47:24;1;1;0
55549;PMS7003;41397;49.972;18.944;2023-04-03T13:50:26;0;0;0
55549;PMS7003;41397;49.972;18.944;2023-04-03T13:53:30;1;1;1
55549;PMS7003;41397;49.972;18.944;2023-04-03T13:56:37;3;3;1
55549;PMS7003;41397;49.972;18.944;2023-04-03T13:59:42;5;5;4
55549;PMS7003;41397;49.972;18.944;2023-04-03T14:02:46;0;0;0
55549;PMS7003;41397;49.972;18.944;2023-04-03T14:05:48;3;3;1
55549;PMS7003;41397;49.972;18.944;2023-04-03T14:08:51;3;3;3
55549;PMS7003;41397;49.972;18.944;2023-04-03T14:12:00;1;1;1
55549;PMS7003;41397;49.972;18.944;2023-04-03T14:18:24;0;0;0
55549;PMS7003;41397;49.972;18.944;2023-04-03T14:21:26;2;2;1
55549;PMS7003;41397;49.972;18.944;2023-04-03T14:24:32;9;8;3
55549;PMS7003;41397;49.972;18.944;2023-04-03T14:27:37;1;1;1
55549;PMS7003;41397;49.972;18.944;2023-04-03T14:30:41;1;1;0
55549;PMS7003;41397;49.972;18.944;2023-04-03T14:33:43;4;4;4
55549;PMS7003;41397;49.972;18.944;2023-04-03T14:36:45;0;0;0
55549;PMS7003;41397;49.972;18.944;2023-04-03T14:39:47;2;2;2
55549;PMS7003;41397;49.972;18.944;2023-04-03T14:42:49;2;2;1
55549;PMS7003;41397;49.972;18.944;2023-04-03T14:45:51;2;2;2
55549;PMS7003;41397;49.972;18.944;2023-04-03T14:48:53;2;2;2
55549;PMS7003;41397;49.972;18.944;2023-04-03T14:51:56;5;5;4
55549;PMS7003;41397;49.972;18.944;2023-04-03T14:54:58;2;2;2
55549;PMS7003;41397;49.972;18.944;2023-04-03T14:58:01;5;5;3
55549;PMS7003;41397;49.972;18.944;2023-04-03T15:01:03;3;3;2
55549;PMS7003;41397;49.972;18.944;2023-04-03T15:04:14;3;3;3
55549;PMS7003;41397;49.972;18.944;2023-04-03T15:07:13;6;6;4
55549;PMS7003;41397;49.972;18.944;2023-04-03T15:13:27;5;5;4
55549;PMS7003;41397;49.972;18.944;2023-04-03T15:16:29;5;5;4
55549;PMS7003;41397;49.972;18.944;2023-04-03T15:19:37;2;2;2
55549;PMS7003;41397;49.972;18.944;2023-04-03T15:22:39;6;6;3
55549;PMS7003;41397;49.972;18.944;2023-04-03T15:25:46;5;5;4
55549;PMS7003;41397;49.972;18.944;2023-04-03T15:28:49;2;2;2
55549;PMS7003;41397;49.972;18.944;2023-04-03T15:31:54;4;4;2
55549;PMS7003;41397;49.972;18.944;2023-04-03T15:34:56;0;0;0
55549;PMS7003;41397;49.972;18.944;2023-04-03T15:37:57;3;3;3
55549;PMS7003;41397;49.972;18.944;2023-04-03T15:40:59;5;5;4
55549;PMS7003;41397;49.972;18.944;2023-04-03T15:44:02;4;4;3
55549;PMS7003;41397;49.972;18.944;2023-04-03T15:47:03;3;3;1
55549;PMS7003;41397;49.972;18.944;2023-04-03T15:50:05;4;4;3
55549;PMS7003;41397;49.972;18.944;2023-04-03T15:53:08;7;5;4
55549;PMS7003;41397;49.972;18.944;2023-04-03T15:56:10;3;3;3
55549;PMS7003;41397;49.972;18.944;2023-04-03T15:59:12;3;3;3
55549;PMS7003;41397;49.972;18.944;2023-04-03T16:02:14;7;7;5
55549;PMS7003;41397;49.972;18.944;2023-04-03T16:05:15;5;5;5
55549;PMS7003;41397;49.972;18.944;2023-04-03T16:08:18;8;4;4
55549;PMS7003;41397;49.972;18.944;2023-04-03T16:11:19;4;4;4
55549;PMS7003;41397;49.972;18.944;2023-04-03T16:14:21;5;5;4
55549;PMS7003;41397;49.972;18.944;2023-04-03T16:17:22;4;4;4
55549;PMS7003;41397;49.972;18.944;2023-04-03T16:20:26;5;5;3
55549;PMS7003;41397;49.972;18.944;2023-04-03T16:23:28;3;3;3
55549;PMS7003;41397;49.972;18.944;2023-04-03T16:26:30;3;3;3
55549;PMS7003;41397;49.972;18.944;2023-04-03T16:29:31;3;3;2
55549;PMS7003;41397;49.972;18.944;2023-04-03T16:32:34;20;20;13
55549;PMS7003;41397;49.972;18.944;2023-04-03T16:35:36;9;9;7
55549;PMS7003;41397;49.972;18.944;2023-04-03T16:38:38;4;4;2
55549;PMS7003;41397;49.972;18.944;2023-04-03T16:42:32;5;5;4
55549;PMS7003;41397;49.972;18.944;2023-04-03T16:45:34;3;3;3
55549;PMS7003;41397;49.972;18.944;2023-04-03T16:48:35;6;6;5
55549;PMS7003;41397;49.972;18.944;2023-04-03T16:51:40;5;5;5
55549;PMS7003;41397;49.972;18.944;2023-04-03T16:54:41;6;6;5
55549;PMS7003;41397;49.972;18.944;2023-04-03T16:57:43;4;4;3
55549;PMS7003;41397;49.972;18.944;2023-04-03T17:00:44;4;4;3
55549;PMS7003;41397;49.972;18.944;2023-04-03T17:03:48;5;5;5
55549;PMS7003;41397;49.972;18.944;2023-04-03T17:06:50;5;5;3
55549;PMS7003;41397;49.972;18.944;2023-04-03T17:09:52;4;4;4
55549;PMS7003;41397;49.972;18.944;2023-04-03T17:12:54;7;7;7
55549;PMS7003;41397;49.972;18.944;2023-04-03T17:15:56;5;5;3
55549;PMS7003;41397;49.972;18.944;2023-04-03T17:18:58;5;5;4
55549;PMS7003;41397;49.972;18.944;2023-04-03T17:22:01;5;5;4
55549;PMS7003;41397;49.972;18.944;2023-04-03T17:25:03;6;6;5
55549;PMS7003;41397;49.972;18.944;2023-04-03T17:28:05;8;8;7
55549;PMS7003;41397;49.972;18.944;2023-04-03T17:31:06;7;7;6
55549;PMS7003;41397;49.972;18.944;2023-04-03T17:34:08;6;6;5
55549;PMS7003;41397;49.972;18.944;2023-04-03T17:37:12;5;5;4
55549;PMS7003;41397;49.972;18.944;2023-04-03T17:40:14;7;7;5
55549;PMS7003;41397;49.972;18.944;2023-04-03T17:43:18;5;5;4
55549;PMS7003;41397;49.972;18.944;2023-04-03T17:46:19;6;6;6
55549;PMS7003;41397;49.972;18.944;2023-04-03T17:49:21;8;8;7
55549;PMS7003;41397;49.972;18.944;2023-04-03T17:52:23;6;6;5
55549;PMS7003;41397;49.972;18.944;2023-04-03T17:55:33;6;6;5
55549;PMS7003;41397;49.972;18.944;2023-04-03T17:58:38;6;6;5
55549;PMS7003;41397;49.972;18.944;2023-04-03T18:01:41;10;10;8
55549;PMS7003;41397;49.972;18.944;2023-04-03T18:04:51;7;7;7
55549;PMS7003;41397;49.972;18.944;2023-04-03T18:07:53;6;4;3
55549;PMS7003;41397;49.972;18.944;2023-04-03T18:10:56;4;4;3
55549;PMS7003;41397;49.972;18.944;2023-04-03T18:13:58;10;6;5
55549;PMS7003;41397;49.972;18.944;2023-04-03T18:17:02;13;13;9
55549;PMS7003;41397;49.972;18.944;2023-04-03T18:20:05;12;12;7
55549;PMS7003;41397;49.972;18.944;2023-04-03T18:23:11;11;11;7
55549;PMS7003;41397;49.972;18.944;2023-04-03T18:26:12;11;11;10
55549;PMS7003;41397;49.972;18.944;2023-04-03T18:29:15;11;11;8
55549;PMS7003;41397;49.972;18.944;2023-04-03T18:32:18;11;11;7
55549;PMS7003;41397;49.972;18.944;2023-04-03T18:35:27;12;12;9
55549;PMS7003;41397;49.972;18.944;2023-04-03T18:38:28;7;7;6
55549;PMS7003;41397;49.972;18.944;2023-04-03T18:41:31;9;9;7
55549;PMS7003;41397;49.972;18.944;2023-04-03T18:44:39;10;10;8
55549;PMS7003;41397;49.972;18.944;2023-04-03T18:47:43;11;11;7
55549;PMS7003;41397;49.972;18.944;2023-04-03T18:50:46;12;10;7
55549;PMS7003;41397;49.972;18.944;2023-04-03T18:53:49;7;7;6
55549;PMS7003;41397;49.972;18.944;2023-04-03T18:56:50;8;8;7
55549;PMS7003;41397;49.972;18.944;2023-04-03T18:59:52;8;8;5
55549;PMS7003;41397;49.972;18.944;2023-04-03T19:02:53;7;7;6
55549;PMS7003;41397;49.972;18.944;2023-04-03T19:05:55;9;9;8
55549;PMS7003;41397;49.972;18.944;2023-04-03T19:08:57;5;5;4
55549;PMS7003;41397;49.972;18.944;2023-04-03T19:11:59;9;9;7
55549;PMS7003;41397;49.972;18.944;2023-04-03T19:15:11;9;9;6
55549;PMS7003;41397;49.972;18.944;2023-04-03T19:18:14;13;13;10
55549;PMS7003;41397;49.972;18.944;2023-04-03T19:21:17;6;6;5
55549;PMS7003;41397;49.972;18.944;2023-04-03T19:24:21;6;6;5
55549;PMS7003;41397;49.972;18.944;2023-04-03T19:27:22;11;11;9
55549;PMS7003;41397;49.972;18.944;2023-04-03T19:30:24;14;14;7
55549;PMS7003;41397;49.972;18.944;2023-04-03T19:33:26;6;6;5
55549;PMS7003;41397;49.972;18.944;2023-04-03T19:36:29;10;10;7
55549;PMS7003;41397;49.972;18.944;2023-04-03T19:39:31;10;10;8
55549;PMS7003;41397;49.972;18.944;2023-04-03T19:42:37;11;8;5
55549;PMS7003;41397;49.972;18.944;2023-04-03T19:45:43;10;10;8
55549;PMS7003;41397;49.972;18.944;2023-04-03T19:48:46;10;10;8
55549;PMS7003;41397;49.972;18.944;2023-04-03T19:51:47;6;6;6
55549;PMS7003;41397;49.972;18.944;2023-04-03T19:54:49;14;14;10
55549;PMS7003;41397;49.972;18.944;2023-04-03T19:57:52;6;6;4
55549;PMS7003;41397;49.972;18.944;2023-04-03T20:00:53;7;7;6
55549;PMS7003;41397;49.972;18.944;2023-04-03T20:03:56;9;9;7
55549;PMS7003;41397;49.972;18.944;2023-04-03T20:06:58;7;7;6
55549;PMS7003;41397;49.972;18.944;2023-04-03T20:10:01;9;9;7
55549;PMS7003;41397;49.972;18.944;2023-04-03T20:13:28;12;12;10
55549;PMS7003;41397;49.972;18.944;2023-04-03T20:16:30;27;23;10
55549;PMS7003;41397;49.972;18.944;2023-04-03T20:23:11;13;13;10
55549;PMS7003;41397;49.972;18.944;2023-04-03T20:33:15;10;10;8
55549;PMS7003;41397;49.972;18.944;2023-04-03T20:50:21;9;9;7
55549;PMS7003;41397;49.972;18.944;2023-04-03T20:53:23;14;13;9
55549;PMS7003;41397;49.972;18.944;2023-04-03T20:59:50;17;17;9
55549;PMS7003;41397;49.972;18.944;2023-04-03T21:02:55;15;15;12
55549;PMS7003;41397;49.972;18.944;2023-04-03T21:22:09;9;9;8
55549;PMS7003;41397;49.972;18.944;2023-04-03T21:25:10;6;6;4
55549;PMS7003;41397;49.972;18.944;2023-04-03T21:28:16;13;13;9
55549;PMS7003;41397;49.972;18.944;2023-04-03T21:31:22;9;9;8
55549;PMS7003;41397;49.972;18.944;2023-04-03T21:34:25;14;14;11
55549;PMS7003;41397;49.972;18.944;2023-04-03T21:41:03;19;19;13
55549;PMS7003;41397;49.972;18.944;2023-04-03T21:44:05;13;13;11
55549;PMS7003;41397;49.972;18.944;2023-04-03T21:47:07;15;15;9
55549;PMS7003;41397;49.972;18.944;2023-04-03T21:50:08;13;13;9
55549;PMS7003;41397;49.972;18.944;2023-04-03T21:53:11;21;21;15
55549;PMS7003;41397;49.972;18.944;2023-04-03T21:56:12;13;13;8
55549;PMS7003;41397;49.972;18.944;2023-04-03T21:59:14;19;19;13
55549;PMS7003;41397;49.972;18.944;2023-04-03T22:02:16;6;6;5
55549;PMS7003;41397;49.972;18.944;2023-04-03T22:05:17;13;13;9
55549;PMS7003;41397;49.972;18.944;2023-04-03T22:08:19;14;14;8
55549;PMS7003;41397;49.972;18.944;2023-04-03T22:11:21;13;13;9
55549;PMS7003;41397;49.972;18.944;2023-04-03T22:14:27;13;13;9
55549;PMS7003;41397;49.972;18.944;2023-04-03T22:17:30;13;13;11
55549;PMS7003;41397;49.972;18.944;2023-04-03T22:20:32;17;17;10
55549;PMS7003;41397;49.972;18.944;2023-04-03T22:23:34;13;13;8
55549;PMS7003;41397;49.972;18.944;2023-04-03T22:26:35;20;20;15
55549;PMS7003;41397;49.972;18.944;2023-04-03T22:29:43;12;12;10
55549;PMS7003;41397;49.972;18.944;2023-04-03T22:32:45;11;11;10
55549;PMS7003;41397;49.972;18.944;2023-04-03T22:35:47;9;9;7
55549;PMS7003;41397;49.972;18.944;2023-04-03T22:38:50;8;8;7
55549;PMS7003;41397;49.972;18.944;2023-04-03T22:41:51;13;13;9
55549;PMS7003;41397;49.972;18.944;2023-04-03T22:44:53;4;3;2
55549;PMS7003;41397;49.972;18.944;2023-04-03T22:47:55;11;11;8
55549;PMS7003;41397;49.972;18.944;2023-04-03T22:50:59;10;10;6
55549;PMS7003;41397;49.972;18.944;2023-04-03T22:54:01;10;8;4